createdAt,value
2018-11-21T00:02:37.425Z,5.50
2018-11-21T00:05:17.444Z,5.50
2018-11-21T00:07:56.749Z,5.60
2018-11-21T00:10:36.755Z,5.50
2018-11-21T00:13:16.602Z,5.40
2018-11-21T00:15:56.194Z,5.40
2018-11-21T00:18:35.895Z,5.40
2018-11-21T00:21:15.663Z,5.40
2018-11-21T00:23:55.325Z,5.40
2018-11-21T00:26:34.894Z,5.40
2018-11-21T00:29:14.337Z,5.30
2018-11-21T00:31:52.175Z,5.40
2018-11-21T00:34:32.481Z,5.30
2018-11-21T00:37:12.438Z,5.30
2018-11-21T00:39:53.322Z,5.40
2018-11-21T00:42:33.277Z,5.30
2018-11-21T00:45:13.060Z,5.30
2018-11-21T00:47:52.561Z,5.20
2018-11-21T00:50:32.226Z,5.20
2018-11-21T00:53:11.877Z,5.30
2018-11-21T00:55:51.904Z,5.20
2018-11-21T00:58:31.667Z,5.20
2018-11-21T01:01:11.263Z,5.20
2018-11-21T01:03:50.916Z,5.20
2018-11-21T01:06:30.643Z,5.20
2018-11-21T01:08:57.755Z,5.20
2018-11-21T01:11:44.491Z,5.10
2018-11-21T01:14:31.134Z,5.10
2018-11-21T01:17:10.965Z,5.10
2018-11-21T01:19:50.524Z,5.10
2018-11-21T01:22:30.470Z,5.10
2018-11-21T01:25:09.971Z,5.10
2018-11-21T01:27:49.865Z,5.20
2018-11-21T01:30:29.588Z,5.10
2018-11-21T01:33:09.720Z,5.10
2018-11-21T01:35:48.733Z,5.20
2018-11-21T01:38:28.113Z,5.20
2018-11-21T01:41:08.281Z,5.30
2018-11-21T01:43:48.539Z,5.40
2018-11-21T01:46:28.104Z,5.30
2018-11-21T01:49:07.807Z,5.40
2018-11-21T01:51:47.424Z,5.50
2018-11-21T01:54:27.096Z,5.50
2018-11-21T01:57:06.696Z,5.50
2018-11-21T01:59:46.204Z,5.70
2018-11-21T02:02:26.536Z,5.60
2018-11-21T02:05:06.179Z,5.60
2018-11-21T02:07:45.552Z,5.60
2018-11-21T02:10:25.187Z,5.50
2018-11-21T02:13:04.737Z,5.50
2018-11-21T02:15:45.096Z,5.50
2018-11-21T02:18:24.698Z,5.50
2018-11-21T02:21:04.394Z,5.70
2018-11-21T02:23:44.190Z,5.70
2018-11-21T02:26:23.825Z,5.60
2018-11-21T02:29:04.015Z,5.60
2018-11-21T02:31:43.659Z,5.50
2018-11-21T02:34:23.328Z,5.50
2018-11-21T02:36:50.732Z,5.60
2018-11-21T02:39:37.363Z,5.70
2018-11-21T02:42:24.029Z,5.70
2018-11-21T02:45:04.206Z,5.80
2018-11-21T02:47:43.988Z,5.80
2018-11-21T02:50:23.449Z,5.80
2018-11-21T02:53:03.209Z,5.80
2018-11-21T02:55:42.845Z,5.70
2018-11-21T02:58:22.399Z,5.70
2018-11-21T03:01:02.014Z,5.60
2018-11-21T03:03:41.716Z,5.60
2018-11-21T03:06:21.669Z,5.50
2018-11-21T03:09:01.323Z,5.40
2018-11-21T03:11:40.982Z,5.30
2018-11-21T03:14:20.773Z,5.40
2018-11-21T03:17:00.585Z,5.50
2018-11-21T03:19:40.387Z,5.50
2018-11-21T03:22:20.097Z,5.50
2018-11-21T03:24:59.849Z,5.50
2018-11-21T03:27:39.728Z,5.30
2018-11-21T03:30:19.865Z,5.50
2018-11-21T03:32:59.266Z,5.40
2018-11-21T03:35:38.912Z,5.40
2018-11-21T03:38:18.820Z,5.50
2018-11-21T03:40:58.469Z,5.50
2018-11-21T03:43:38.350Z,5.40
2018-11-21T03:46:18.071Z,5.40
2018-11-21T03:48:57.821Z,5.60
2018-11-21T03:51:38.036Z,5.50
2018-11-21T03:54:17.815Z,5.50
2018-11-21T03:56:57.436Z,5.30
2018-11-21T03:59:37.195Z,5.30
2018-11-21T04:02:16.853Z,5.40
2018-11-21T04:04:56.576Z,5.50
2018-11-21T04:07:36.552Z,5.40
2018-11-21T04:10:16.332Z,5.10
2018-11-21T04:12:55.996Z,5.10
2018-11-21T04:15:35.614Z,5.10
2018-11-21T04:18:15.125Z,5.10
2018-11-21T04:20:54.718Z,5.20
2018-11-21T04:23:34.275Z,5.40
2018-11-21T04:26:14.618Z,5.40
2018-11-21T04:28:54.825Z,5.30
2018-11-21T04:31:34.227Z,5.40
2018-11-21T04:34:13.943Z,5.50
2018-11-21T04:36:53.682Z,5.60
2018-11-21T04:39:33.231Z,5.60
2018-11-21T04:42:13.086Z,5.50
2018-11-21T04:44:53.447Z,5.50
2018-11-21T04:47:33.506Z,5.20
2018-11-21T04:50:13.385Z,5.10
2018-11-21T04:52:53.230Z,5.10
2018-11-21T04:55:32.625Z,5.00
2018-11-21T04:58:12.158Z,5.00
2018-11-21T05:00:51.882Z,4.90
2018-11-21T05:06:44.489Z,4.80
2018-11-21T05:09:24.238Z,4.70
2018-11-21T05:12:04.067Z,4.90
2018-11-21T05:14:43.793Z,4.90
2018-11-21T05:17:23.869Z,4.80
2018-11-21T05:20:03.416Z,4.70
2018-11-21T05:22:43.551Z,4.90
2018-11-21T05:25:23.203Z,4.80
2018-11-21T05:28:03.158Z,4.70
2018-11-21T05:30:43.164Z,4.80
2018-11-21T05:33:24.546Z,4.90
2018-11-21T05:36:04.867Z,4.70
2018-11-21T05:38:44.342Z,4.90
2018-11-21T05:41:23.871Z,5.00
2018-11-21T05:44:03.444Z,5.00
2018-11-21T05:46:43.305Z,5.30
2018-11-21T05:49:22.893Z,5.40
2018-11-21T05:51:50.035Z,5.50
2018-11-21T05:54:36.691Z,5.50
2018-11-21T05:57:16.376Z,5.50
2018-11-21T05:59:56.199Z,5.60
2018-11-21T06:02:35.782Z,5.70
2018-11-21T06:05:15.319Z,5.70
2018-11-21T06:07:55.208Z,5.70
2018-11-21T06:10:34.977Z,5.90
2018-11-21T06:13:02.078Z,5.80
2018-11-21T06:15:48.708Z,5.80
2018-11-21T06:18:28.477Z,5.80
2018-11-21T06:21:08.442Z,5.70
2018-11-21T06:23:49.013Z,5.70
2018-11-21T06:26:28.384Z,5.70
2018-11-21T06:29:08.062Z,5.50
2018-11-21T06:31:47.694Z,5.50
2018-11-21T06:34:32.747Z,5.60
2018-11-21T06:37:07.223Z,5.70
2018-11-21T06:39:46.787Z,5.80
2018-11-21T06:42:13.922Z,5.80
2018-11-21T06:45:00.544Z,5.60
2018-11-21T06:47:40.188Z,5.70
2018-11-21T06:50:19.911Z,5.70
2018-11-21T06:52:59.379Z,5.60
2018-11-21T06:55:39.115Z,5.70
2018-11-21T06:58:18.712Z,5.50
2018-11-21T07:00:58.664Z,5.60
2018-11-21T07:03:25.760Z,5.80
2018-11-21T07:06:13.010Z,5.70
2018-11-21T07:08:59.695Z,5.70
2018-11-21T07:11:27.100Z,5.80
2018-11-21T07:14:13.823Z,5.80
2018-11-21T07:16:53.399Z,5.80
2018-11-21T07:19:32.905Z,5.70
2018-11-21T07:22:12.318Z,5.80
2018-11-21T07:24:52.408Z,5.80
2018-11-21T07:27:32.064Z,5.60
2018-11-21T07:30:13.089Z,5.70
2018-11-21T07:32:53.196Z,5.80
2018-11-21T07:35:32.787Z,5.70
2018-11-21T07:37:59.939Z,5.70
2018-11-21T07:40:46.588Z,5.70
2018-11-21T07:43:33.241Z,5.80
2018-11-21T07:46:19.907Z,5.70
2018-11-21T07:48:59.751Z,5.70
2018-11-21T07:51:39.335Z,5.50
2018-11-21T07:54:18.821Z,5.40
2018-11-21T07:57:00.954Z,5.60
2018-11-21T07:59:40.971Z,5.80
2018-11-21T08:02:25.287Z,5.70
2018-11-21T08:05:24.947Z,5.90
2018-11-21T08:08:11.714Z,5.90
2018-11-21T08:11:17.960Z,5.90
2018-11-21T08:14:24.147Z,5.90
2018-11-21T08:17:30.367Z,5.80
2018-11-21T08:20:29.510Z,5.90
2018-11-21T08:23:29.132Z,5.90
2018-11-21T08:26:23.412Z,5.80
2018-11-21T08:28:50.573Z,5.70
2018-11-21T08:31:37.292Z,5.50
2018-11-21T08:34:23.965Z,5.60
2018-11-21T08:37:03.517Z,5.80
2018-11-21T08:39:43.549Z,5.90
2018-11-21T08:42:23.186Z,6.00
2018-11-21T08:45:03.060Z,6.10
2018-11-21T08:47:42.694Z,6.20
2018-11-21T08:50:22.358Z,6.30
2018-11-21T08:53:02.348Z,6.30
2018-11-21T08:55:29.417Z,6.30
2018-11-21T08:58:16.107Z,6.30
2018-11-21T09:01:02.784Z,6.20
2018-11-21T09:03:49.431Z,6.10
2018-11-21T09:06:29.176Z,6.30
2018-11-21T09:08:56.621Z,6.40
2018-11-21T09:11:43.284Z,6.30
2018-11-21T09:14:23.466Z,6.40
2018-11-21T09:17:03.154Z,6.30
2018-11-21T09:19:30.652Z,6.10
2018-11-21T09:22:17.243Z,6.10
2018-11-21T09:25:05.072Z,6.10
2018-11-21T09:27:44.730Z,6.20
2018-11-21T09:30:24.285Z,6.40
2018-11-21T09:33:04.161Z,6.60
2018-11-21T09:35:43.799Z,6.50
2018-11-21T09:38:24.094Z,6.40
2018-11-21T09:41:04.568Z,6.40
2018-11-21T09:43:43.905Z,6.40
2018-11-21T09:46:23.717Z,6.30
2018-11-21T09:49:03.114Z,6.40
2018-11-21T09:51:42.973Z,6.30
2018-11-21T09:54:23.070Z,6.30
2018-11-21T09:57:03.437Z,6.30
2018-11-21T09:59:43.305Z,6.40
2018-11-21T10:02:23.585Z,6.50
2018-11-21T10:05:03.175Z,6.50
2018-11-21T10:07:42.918Z,6.50
2018-11-21T10:10:23.123Z,6.40
2018-11-21T10:13:02.756Z,6.30
2018-11-21T10:15:42.498Z,6.50
2018-11-21T10:18:09.670Z,6.30
2018-11-21T10:20:56.331Z,6.30
2018-11-21T10:23:36.039Z,6.30
2018-11-21T10:26:15.944Z,6.30
2018-11-21T10:28:55.500Z,6.30
2018-11-21T10:31:35.385Z,6.20
2018-11-21T10:34:02.590Z,6.10
2018-11-21T10:36:49.281Z,6.20
2018-11-21T10:39:35.981Z,6.30
2018-11-21T10:42:15.472Z,6.20
2018-11-21T10:44:55.476Z,6.10
2018-11-21T10:47:35.368Z,5.90
2018-11-21T10:50:15.132Z,6.00
2018-11-21T10:52:54.755Z,6.20
2018-11-21T10:55:34.584Z,6.20
2018-11-21T10:58:14.344Z,6.10
2018-11-21T11:01:13.561Z,6.20
2018-11-21T11:04:16.316Z,6.30
2018-11-21T11:07:15.974Z,6.50
2018-11-21T11:10:14.979Z,6.50
2018-11-21T11:12:53.542Z,6.40
2018-11-21T11:15:59.806Z,6.50
2018-11-21T11:18:59.047Z,6.60
2018-11-21T11:21:55.908Z,6.60
2018-11-21T11:24:55.789Z,6.70
2018-11-21T11:27:55.350Z,6.70
2018-11-21T11:33:56.516Z,6.60
2018-11-21T11:36:55.620Z,6.40
2018-11-21T11:39:54.909Z,6.40
2018-11-21T11:42:54.562Z,6.50
2018-11-21T11:46:00.284Z,6.60
2018-11-21T11:48:56.813Z,6.60
2018-11-21T11:51:56.049Z,6.30
2018-11-21T11:54:42.740Z,6.50
2018-11-21T11:57:49.037Z,6.60
2018-11-21T12:00:35.712Z,6.60
2018-11-21T12:03:41.936Z,6.70
2018-11-21T12:10:00.410Z,6.70
2018-11-21T12:12:59.512Z,6.70
2018-11-21T12:16:04.943Z,6.50
2018-11-21T12:19:04.594Z,6.70
2018-11-21T12:25:07.585Z,6.70
2018-11-21T12:28:07.146Z,6.80
2018-11-21T12:31:06.897Z,6.70
2018-11-21T12:34:09.494Z,6.80
2018-11-21T12:37:09.281Z,6.60
2018-11-21T12:40:11.338Z,6.70
2018-11-21T12:43:13.622Z,6.70
2018-11-21T12:46:08.351Z,6.70
2018-11-21T12:49:01.308Z,6.50
2018-11-21T12:52:00.368Z,6.40
2018-11-21T12:54:59.474Z,6.50
2018-11-21T12:58:05.651Z,6.60
2018-11-21T13:00:52.375Z,6.60
2018-11-21T13:03:58.622Z,6.60
2018-11-21T13:06:58.264Z,6.50
2018-11-21T13:09:58.143Z,6.60
2018-11-21T13:12:43.653Z,6.60
2018-11-21T13:15:43.647Z,6.60
2018-11-21T13:18:41.593Z,6.60
2018-11-21T13:21:29.330Z,6.60
2018-11-21T13:24:28.430Z,6.50
2018-11-21T13:27:27.562Z,6.40
2018-11-21T13:30:26.511Z,6.50
2018-11-21T13:33:26.317Z,6.60
2018-11-21T13:36:25.414Z,6.60
2018-11-21T13:39:12.956Z,6.60
2018-11-21T13:42:19.244Z,6.60
2018-11-21T13:48:23.234Z,6.40
2018-11-21T13:51:14.770Z,6.40
2018-11-21T13:54:14.635Z,6.30
2018-11-21T13:56:41.752Z,6.50
2018-11-21T13:59:28.449Z,6.50
2018-11-21T14:02:15.136Z,6.50
2018-11-21T14:04:55.447Z,6.50
2018-11-21T14:07:35.689Z,6.50
2018-11-21T14:10:15.204Z,6.50
2018-11-21T14:12:54.847Z,6.50
2018-11-21T14:15:34.601Z,6.60
2018-11-21T14:18:14.311Z,6.70
2018-11-21T14:20:53.812Z,6.80
2018-11-21T14:23:33.994Z,6.70
2018-11-21T14:26:13.684Z,6.40
2018-11-21T14:28:53.541Z,6.50
2018-11-21T14:31:33.841Z,6.40
2018-11-21T14:34:14.797Z,6.50
2018-11-21T14:36:55.120Z,6.20
2018-11-21T14:39:34.745Z,6.30
2018-11-21T14:42:14.341Z,6.10
2018-11-21T14:44:53.931Z,6.00
2018-11-21T14:47:21.104Z,6.10
2018-11-21T14:50:09.990Z,6.30
2018-11-21T14:52:49.918Z,6.30
2018-11-21T14:55:29.805Z,6.10
2018-11-21T14:58:10.009Z,6.30
2018-11-21T15:00:50.589Z,6.40
2018-11-21T15:03:30.941Z,6.40
2018-11-21T15:06:10.756Z,6.50
2018-11-21T15:08:50.785Z,6.40
2018-11-21T15:11:30.420Z,6.00
2018-11-21T15:13:57.593Z,5.90
2018-11-21T15:16:44.255Z,6.10
2018-11-21T15:19:24.247Z,6.20
2018-11-21T15:22:04.180Z,6.20
2018-11-21T15:24:41.984Z,6.10
2018-11-21T15:27:09.176Z,6.10
2018-11-21T15:29:36.330Z,6.20
2018-11-21T15:32:03.828Z,6.30
2018-11-21T15:34:50.506Z,6.30
2018-11-21T15:37:28.651Z,6.20
2018-11-21T15:40:17.013Z,6.40
2018-11-21T15:42:44.125Z,6.30
2018-11-21T15:45:13.356Z,6.30
2018-11-21T15:48:00.889Z,6.30
2018-11-21T15:50:47.571Z,6.40
2018-11-21T15:53:27.326Z,6.40
2018-11-21T15:56:07.294Z,6.30
2018-11-21T15:58:47.573Z,6.30
2018-11-21T16:01:29.547Z,6.30
2018-11-21T16:04:08.953Z,6.30
2018-11-21T16:06:48.810Z,6.50
2018-11-21T16:09:28.407Z,6.40
2018-11-21T16:12:08.196Z,6.50
2018-11-21T16:14:47.956Z,6.50
2018-11-21T16:17:27.780Z,6.50
2018-11-21T16:19:54.912Z,6.60
2018-11-21T16:22:41.863Z,6.50
2018-11-21T16:25:22.219Z,6.50
2018-11-21T16:34:11.869Z,6.60
2018-11-21T16:36:51.684Z,6.50
2018-11-21T16:39:31.366Z,6.40
2018-11-21T16:42:11.291Z,6.40
2018-11-21T16:44:50.684Z,6.50
2018-11-21T16:47:17.912Z,6.50
2018-11-21T16:50:06.518Z,6.60
2018-11-21T16:52:46.974Z,6.60
2018-11-21T16:55:26.916Z,6.50
2018-11-21T16:58:09.945Z,6.50
2018-11-21T17:00:49.693Z,6.50
2018-11-21T17:03:29.360Z,6.50
2018-11-21T17:06:09.132Z,6.50
2018-11-21T17:08:49.150Z,6.40
2018-11-21T17:11:28.552Z,6.40
2018-11-21T17:13:56.108Z,6.40
2018-11-21T17:16:42.805Z,6.50
2018-11-21T17:19:29.835Z,6.40
2018-11-21T17:22:09.284Z,6.60
2018-11-21T17:24:49.018Z,6.50
